Time;durP1;ratioP1;P1;durP2;ratioP2;P2;SDS_P1;SDS_P2;PMS_P1;PMS_P2;Temp;Humidity;BMP_temperature;BMP_pressure;BME280_temperature;BME280_humidity;BME280_pressure;Samples;Min_cycle;Max_cycle;Signal;HPM_P1;HPM_P2
2023/04/17 00:01:36;;;;;;;3.53;3.33;;;6.30;99.90;;;;;;5051184;28;20195;-76
2023/04/17 00:04:02;;;;;;;5.55;3.45;;;6.30;99.90;;;;;;5045705;28;20200;-76
2023/04/17 00:06:28;;;;;;;3.08;2.88;;;6.30;99.90;;;;;;5047626;28;20615;-76
2023/04/17 00:08:54;;;;;;;4.00;3.70;;;6.30;99.90;;;;;;5044208;28;20530;-75
2023/04/17 00:11:20;;;;;;;4.22;3.92;;;6.30;99.90;;;;;;5048056;28;20192;-76
2023/04/17 00:13:46;;;;;;;4.22;3.80;;;6.30;99.90;;;;;;5047985;28;20183;-75
2023/04/17 00:16:12;;;;;;;4.05;3.75;;;6.20;99.90;;;;;;5050415;28;20206;-75
2023/04/17 00:18:38;;;;;;;3.90;3.60;;;6.20;99.90;;;;;;5056562;28;20262;-75
2023/04/17 00:21:05;;;;;;;4.10;3.80;;;6.20;99.90;;;;;;5050513;28;20279;-75
2023/04/17 00:23:30;;;;;;;4.97;4.57;;;6.20;99.90;;;;;;5046926;28;20183;-75
2023/04/17 00:25:56;;;;;;;4.70;4.40;;;6.20;99.90;;;;;;5049897;28;20204;-75
2023/04/17 00:28:22;;;;;;;4.82;4.43;;;6.10;99.90;;;;;;5048397;28;20176;-76
2023/04/17 00:30:47;;;;;;;4.72;4.30;;;6.10;99.90;;;;;;5051387;28;20568;-76
2023/04/17 00:33:13;;;;;;;4.20;3.90;;;6.10;99.90;;;;;;5047798;28;20185;-76
2023/04/17 00:35:39;;;;;;;4.40;4.00;;;6.00;99.90;;;;;;5051373;28;20200;-76
2023/04/17 00:38:04;;;;;;;4.80;4.45;;;6.00;99.90;;;;;;5044807;28;20703;-77
2023/04/17 00:40:30;;;;;;;3.58;3.38;;;6.00;99.90;;;;;;5048225;28;20183;-77
2023/04/17 00:43:00;;;;;;;4.00;3.70;;;6.00;99.90;;;;;;5042723;28;20232;-77
2023/04/17 00:45:25;;;;;;;4.35;3.95;;;5.90;99.90;;;;;;5050091;28;20227;-76
2023/04/17 00:47:52;;;;;;;4.40;4.10;;;5.90;99.90;;;;;;5049112;28;20210;-76
2023/04/17 00:50:18;;;;;;;4.65;4.28;;;5.90;99.90;;;;;;5051850;28;20663;-76
2023/04/17 00:52:44;;;;;;;4.70;4.30;;;5.90;99.90;;;;;;5043621;28;20263;-76
2023/04/17 00:55:11;;;;;;;5.03;4.63;;;5.90;99.90;;;;;;5048107;28;20206;-77
2023/04/17 00:57:36;;;;;;;4.88;3.72;;;5.90;99.90;;;;;;5047448;28;20208;-77
2023/04/17 01:00:03;;;;;;;3.92;3.67;;;5.90;99.90;;;;;;5040495;28;20598;-76
2023/04/17 01:02:29;;;;;;;5.00;4.57;;;5.80;99.90;;;;;;5048269;28;20182;-75
2023/04/17 01:04:54;;;;;;;4.78;4.38;;;5.80;99.90;;;;;;5047672;28;20275;-75
2023/04/17 01:07:20;;;;;;;4.60;4.30;;;5.70;99.90;;;;;;5041251;28;20673;-75
2023/04/17 01:09:46;;;;;;;4.45;4.10;;;5.80;99.90;;;;;;5054013;28;20184;-75
2023/04/17 01:12:30;;;;;;;4.03;3.80;;;5.80;99.90;;;;;;5045380;28;20525;-75
2023/04/17 01:14:56;;;;;;;4.45;4.05;;;5.80;99.90;;;;;;5046189;28;20204;-76
2023/04/17 01:17:24;;;;;;;3.72;3.47;;;5.70;99.90;;;;;;5047619;28;20215;-76
2023/04/17 01:19:50;;;;;;;4.60;4.20;;;5.70;99.90;;;;;;5042115;28;20175;-75
2023/04/17 01:22:16;;;;;;;4.88;4.47;;;5.70;99.90;;;;;;5047550;28;20172;-75
2023/04/17 01:24:42;;;;;;;5.05;4.55;;;5.60;99.90;;;;;;5049477;28;20249;-76
2023/04/17 01:27:07;;;;;;;4.63;4.22;;;5.60;99.90;;;;;;5047046;28;20184;-75
2023/04/17 01:29:34;;;;;;;4.85;4.45;;;5.50;99.90;;;;;;5049617;28;20219;-76
2023/04/17 01:32:00;;;;;;;4.65;4.25;;;5.60;99.90;;;;;;5033730;28;20183;-76
2023/04/17 01:34:26;;;;;;;5.78;5.28;;;5.60;99.90;;;;;;5045949;28;20574;-74
2023/04/17 01:36:51;;;;;;;4.88;4.47;;;5.70;99.90;;;;;;5044175;28;20619;-75
2023/04/17 01:39:17;;;;;;;4.95;4.45;;;5.60;99.90;;;;;;5045987;28;20188;-75
2023/04/17 01:41:43;;;;;;;5.30;4.90;;;5.60;99.90;;;;;;5050412;28;20184;-75
2023/04/17 01:44:09;;;;;;;5.72;4.68;;;5.50;99.90;;;;;;5043580;28;20588;-75
2023/04/17 01:46:34;;;;;;;4.70;4.28;;;5.60;99.90;;;;;;5052748;28;20180;-75
2023/04/17 01:49:00;;;;;;;4.72;4.43;;;5.60;99.90;;;;;;5048442;28;20182;-76
2023/04/17 01:51:26;;;;;;;4.78;4.30;;;5.70;99.90;;;;;;5051147;28;20259;-76
2023/04/17 01:53:52;;;;;;;4.88;4.47;;;5.70;99.90;;;;;;5047770;28;20188;-77
2023/04/17 01:56:18;;;;;;;4.57;4.18;;;5.60;99.90;;;;;;5052967;28;20206;-77
2023/04/17 01:58:44;;;;;;;4.57;4.25;;;5.60;99.90;;;;;;5046896;28;20198;-75
2023/04/17 02:01:09;;;;;;;4.43;4.13;;;5.50;99.90;;;;;;5044968;28;20184;-75
2023/04/17 02:03:35;;;;;;;4.88;4.47;;;5.60;99.90;;;;;;5049632;28;20233;-75
2023/04/17 02:06:01;;;;;;;4.78;4.38;;;5.50;99.90;;;;;;5049355;28;20207;-75
2023/04/17 02:08:26;;;;;;;4.55;4.18;;;5.40;99.90;;;;;;5041662;28;20180;-75
2023/04/17 02:10:52;;;;;;;4.60;4.30;;;5.40;99.90;;;;;;5046487;28;20188;-76
2023/04/17 02:13:17;;;;;;;4.85;4.45;;;5.40;99.90;;;;;;5049012;28;20215;-75
2023/04/17 02:15:43;;;;;;;5.38;4.30;;;5.30;99.90;;;;;;5047959;28;20709;-75
2023/04/17 02:18:09;;;;;;;4.68;4.28;;;5.30;99.90;;;;;;5041113;28;20602;-76
2023/04/17 02:20:35;;;;;;;4.30;3.92;;;5.20;99.90;;;;;;5045307;28;20781;-75
2023/04/17 02:23:02;;;;;;;4.07;3.78;;;5.20;99.90;;;;;;5045408;28;20188;-76
2023/04/17 02:25:28;;;;;;;4.60;4.20;;;5.10;99.90;;;;;;5048885;28;20581;-75
2023/04/17 02:27:55;;;;;;;4.57;4.18;;;5.10;99.90;;;;;;5045979;28;20191;-75
2023/04/17 02:30:21;;;;;;;4.32;3.97;;;5.20;99.90;;;;;;5045952;28;20185;-75
2023/04/17 02:32:49;;;;;;;4.20;3.88;;;5.10;99.90;;;;;;5045579;28;20206;-75
2023/04/17 02:35:14;;;;;;;4.25;3.85;;;5.00;99.90;;;;;;5041865;28;20279;-75
2023/04/17 02:37:40;;;;;;;4.88;4.47;;;5.00;99.90;;;;;;5046245;28;20290;-75
2023/04/17 02:40:07;;;;;;;4.60;4.30;;;4.90;99.90;;;;;;5047157;28;20189;-75
2023/04/17 02:42:32;;;;;;;5.55;5.13;;;4.90;99.90;;;;;;5043669;28;21042;-76
2023/04/17 02:44:58;;;;;;;5.53;5.03;;;4.90;99.90;;;;;;5040972;28;20204;-76
2023/04/17 02:47:23;;;;;;;5.75;5.25;;;4.90;99.90;;;;;;5049105;28;20580;-76
2023/04/17 02:49:49;;;;;;;5.45;4.95;;;4.90;99.90;;;;;;5044839;28;20603;-75
2023/04/17 02:52:15;;;;;;;5.45;4.95;;;4.90;99.90;;;;;;5043595;28;20192;-76
2023/04/17 02:54:40;;;;;;;5.75;5.25;;;4.90;99.90;;;;;;5042896;28;20585;-76
2023/04/17 02:57:06;;;;;;;5.50;5.07;;;5.00;99.90;;;;;;5036727;28;20266;-75
2023/04/17 02:59:32;;;;;;;5.40;5.00;;;4.90;99.90;;;;;;5041467;28;20195;-75
2023/04/17 03:01:58;;;;;;;6.38;5.88;;;5.00;99.90;;;;;;5042336;28;20230;-75
2023/04/17 03:04:26;;;;;;;7.05;6.20;;;4.90;99.90;;;;;;5045470;28;20708;-75
2023/04/17 03:06:52;;;;;;;6.00;5.50;;;5.00;99.90;;;;;;5036926;28;20177;-75
2023/04/17 03:09:21;;;;;;;5.93;5.43;;;4.90;99.90;;;;;;5038844;28;20181;-76
2023/04/17 03:11:49;;;;;;;6.35;5.80;;;4.90;99.90;;;;;;5047014;28;20655;-77
2023/04/17 03:14:15;;;;;;;6.60;6.00;;;4.80;99.90;;;;;;5039890;28;21528;-77
2023/04/17 03:16:41;;;;;;;6.13;5.57;;;4.80;99.90;;;;;;5047306;28;20659;-77
2023/04/17 03:19:07;;;;;;;6.45;5.90;;;4.80;99.90;;;;;;5044115;28;20210;-77
2023/04/17 03:21:32;;;;;;;6.60;6.00;;;4.80;99.90;;;;;;5042439;28;20188;-78
2023/04/17 03:23:58;;;;;;;6.30;5.70;;;4.80;99.90;;;;;;5050453;28;20635;-77
2023/04/17 03:26:23;;;;;;;6.03;5.45;;;4.80;99.90;;;;;;5048031;28;20249;-76
2023/04/17 03:28:49;;;;;;;6.10;5.57;;;4.80;99.90;;;;;;5046480;28;20184;-76
2023/04/17 03:31:15;;;;;;;7.53;5.15;;;4.70;99.90;;;;;;5046188;28;20273;-75
2023/04/17 03:33:40;;;;;;;5.68;5.18;;;4.80;99.90;;;;;;5049394;28;20575;-75
2023/04/17 03:36:06;;;;;;;5.78;5.28;;;4.80;99.90;;;;;;5045290;28;20265;-75
2023/04/17 03:38:32;;;;;;;5.22;4.78;;;4.80;99.90;;;;;;5050656;28;20259;-75
2023/04/17 03:40:58;;;;;;;6.05;5.45;;;4.80;99.90;;;;;;5048326;28;20192;-75
2023/04/17 03:43:24;;;;;;;5.18;4.75;;;4.80;99.90;;;;;;5052736;28;20172;-75
2023/04/17 03:45:49;;;;;;;5.63;5.13;;;4.70;99.90;;;;;;5047947;28;20199;-74
2023/04/17 03:48:15;;;;;;;5.25;4.85;;;4.70;99.90;;;;;;5050698;28;20265;-74
2023/04/17 03:50:40;;;;;;;6.63;5.95;;;4.70;99.90;;;;;;5055337;28;20262;-74
2023/04/17 03:53:06;;;;;;;6.10;5.50;;;4.80;99.90;;;;;;5045553;28;20258;-75
2023/04/17 03:55:32;;;;;;;5.60;5.10;;;4.80;99.90;;;;;;5047311;28;20200;-75
2023/04/17 03:57:57;;;;;;;5.78;5.18;;;4.80;99.90;;;;;;5053756;28;20207;-74
2023/04/17 04:00:23;;;;;;;7.25;5.57;;;4.90;99.90;;;;;;5048640;28;20180;-75
2023/04/17 04:02:49;;;;;;;6.03;5.53;;;4.90;99.90;;;;;;5052647;28;20211;-75
2023/04/17 04:05:15;;;;;;;5.70;5.20;;;5.00;99.90;;;;;;5043129;28;20285;-75
2023/04/17 04:07:40;;;;;;;5.93;5.43;;;5.00;99.90;;;;;;5048711;28;20559;-75
2023/04/17 04:10:06;;;;;;;5.70;5.20;;;5.10;99.90;;;;;;5052856;28;20179;-74
2023/04/17 04:12:32;;;;;;;7.13;5.32;;;5.10;99.90;;;;;;5051117;28;20651;-74
2023/04/17 04:14:58;;;;;;;4.90;4.60;;;5.20;99.90;;;;;;5047445;28;20231;-74
2023/04/17 04:17:23;;;;;;;5.25;4.80;;;5.30;99.90;;;;;;5050596;28;20287;-74
2023/04/17 04:19:49;;;;;;;5.53;5.13;;;5.40;99.90;;;;;;5046705;28;20187;-76
2023/04/17 04:22:14;;;;;;;5.45;5.05;;;5.50;99.90;;;;;;5049734;28;20658;-75
2023/04/17 04:24:41;;;;;;;5.32;4.93;;;5.50;99.90;;;;;;5051767;28;20644;-75
2023/04/17 04:27:07;;;;;;;5.82;5.40;;;5.60;99.90;;;;;;5047806;28;20180;-74
2023/04/17 04:29:32;;;;;;;5.93;5.43;;;5.60;99.90;;;;;;5051794;28;20659;-74
2023/04/17 04:31:58;;;;;;;6.93;6.28;;;5.60;99.90;;;;;;5048043;28;20180;-74
2023/04/17 04:34:24;;;;;;;6.95;6.30;;;5.70;99.90;;;;;;5043632;28;20235;-74
2023/04/17 04:36:53;;;;;;;6.20;5.70;;;5.70;99.90;;;;;;5046606;28;20266;-75
2023/04/17 04:39:19;;;;;;;7.32;6.70;;;5.70;99.90;;;;;;5047965;28;20640;-75
2023/04/17 04:41:45;;;;;;;7.53;6.47;;;5.70;99.90;;;;;;5036611;28;20188;-78
2023/04/17 04:44:11;;;;;;;8.40;7.05;;;5.70;99.90;;;;;;5044084;28;20245;-75
2023/04/17 04:46:36;;;;;;;7.97;7.15;;;5.70;99.90;;;;;;5052054;28;20192;-75
2023/04/17 04:49:02;;;;;;;8.63;7.72;;;5.70;99.90;;;;;;5044717;28;20204;-74
2023/04/17 04:51:28;;;;;;;8.82;7.57;;;5.80;99.90;;;;;;5036264;28;20274;-77
2023/04/17 04:53:54;;;;;;;8.38;7.40;;;5.80;99.90;;;;;;5049736;28;20258;-76
2023/04/17 04:56:20;;;;;;;8.68;7.78;;;5.80;99.90;;;;;;5052424;28;20671;-76
2023/04/17 04:58:45;;;;;;;9.98;8.70;;;5.90;99.90;;;;;;5047907;28;20194;-76
2023/04/17 05:01:11;;;;;;;8.23;7.38;;;6.00;99.90;;;;;;5027380;28;20549;-76
2023/04/17 05:03:37;;;;;;;13.02;7.95;;;6.00;99.90;;;;;;5036582;28;20175;-76
2023/04/17 05:06:03;;;;;;;10.32;7.85;;;6.10;99.90;;;;;;5045530;28;20286;-77
2023/04/17 05:08:28;;;;;;;7.75;6.93;;;6.30;99.90;;;;;;5046831;28;20183;-77
2023/04/17 05:10:54;;;;;;;7.00;6.18;;;6.40;99.90;;;;;;5054735;28;20642;-77
2023/04/17 05:13:20;;;;;;;9.07;6.72;;;6.50;99.90;;;;;;5041809;28;20199;-77
2023/04/17 05:15:45;;;;;;;8.30;7.40;;;6.60;99.90;;;;;;5045109;28;20265;-76
2023/04/17 05:18:11;;;;;;;8.05;6.72;;;6.70;99.90;;;;;;5050398;28;20263;-77
2023/04/17 05:20:36;;;;;;;8.10;7.30;;;6.80;99.90;;;;;;5057140;28;20192;-77
2023/04/17 05:23:02;;;;;;;9.02;6.55;;;6.80;99.90;;;;;;5047506;28;20672;-77
2023/04/17 05:25:28;;;;;;;7.38;6.47;;;7.20;99.90;;;;;;5053497;28;20218;-76
2023/04/17 05:27:53;;;;;;;7.03;6.40;;;7.50;99.90;;;;;;5046614;28;20199;-76
2023/04/17 05:30:19;;;;;;;6.75;6.15;;;7.70;99.90;;;;;;5040058;28;20180;-76
2023/04/17 05:32:45;;;;;;;6.47;5.93;;;7.80;99.90;;;;;;5049404;28;20191;-76
2023/04/17 05:35:10;;;;;;;6.53;6.00;;;7.90;99.90;;;;;;5028410;28;20563;-80
2023/04/17 05:37:36;;;;;;;6.93;6.30;;;8.20;99.90;;;;;;5044545;28;20206;-76
2023/04/17 05:40:05;;;;;;;7.18;6.40;;;8.20;99.90;;;;;;5051758;28;20234;-79
2023/04/17 05:42:31;;;;;;;6.55;5.38;;;8.10;99.90;;;;;;5053129;28;20185;-79
2023/04/17 05:44:57;;;;;;;7.10;6.40;;;8.20;99.90;;;;;;5060110;28;20206;-78
2023/04/17 05:47:22;;;;;;;7.18;6.25;;;8.20;99.90;;;;;;5052028;28;20195;-78
2023/04/17 05:49:50;;;;;;;6.68;6.07;;;8.40;99.90;;;;;;5056713;28;20183;-78
2023/04/17 05:52:16;;;;;;;6.78;6.18;;;8.30;99.90;;;;;;5059139;28;20594;-87
2023/04/17 05:54:41;;;;;;;7.18;6.57;;;7.90;99.90;;;;;;5043121;28;20205;-79
2023/04/17 05:57:07;;;;;;;6.85;6.25;;;8.10;99.90;;;;;;5049591;28;20576;-79
2023/04/17 05:59:33;;;;;;;6.68;6.07;;;8.30;99.90;;;;;;5050181;28;20179;-79
2023/04/17 06:01:58;;;;;;;6.93;6.13;;;8.30;99.90;;;;;;5048339;28;20196;-79
2023/04/17 06:04:24;;;;;;;7.40;6.70;;;8.30;99.90;;;;;;5053946;28;20199;-79
2023/04/17 06:06:50;;;;;;;6.40;5.80;;;8.60;99.90;;;;;;5050928;28;20237;-79
2023/04/17 06:09:15;;;;;;;6.38;5.78;;;8.50;99.90;;;;;;5050735;28;20671;-80
2023/04/17 06:11:41;;;;;;;6.18;5.60;;;8.40;99.90;;;;;;5060629;28;20176;-77
2023/04/17 06:14:07;;;;;;;6.38;5.82;;;8.60;99.90;;;;;;5049560;28;20203;-76
2023/04/17 06:16:32;;;;;;;6.65;5.97;;;9.10;99.90;;;;;;5050907;28;20203;-76
2023/04/17 06:18:58;;;;;;;5.18;4.88;;;9.40;99.90;;;;;;5055709;28;20320;-76
2023/04/17 06:21:23;;;;;;;6.18;5.68;;;9.80;99.90;;;;;;5048531;28;20200;-76
2023/04/17 06:23:49;;;;;;;5.65;5.20;;;9.90;99.90;;;;;;5053527;28;20172;-79
2023/04/17 06:26:15;;;;;;;5.20;4.75;;;9.80;99.90;;;;;;5052732;28;20184;-77
2023/04/17 06:28:40;;;;;;;6.32;5.82;;;9.60;99.90;;;;;;5044619;28;20180;-75
2023/04/17 06:31:06;;;;;;;5.68;5.20;;;9.70;99.90;;;;;;5039189;28;20181;-75
2023/04/17 06:33:31;;;;;;;5.80;5.30;;;9.70;99.90;;;;;;5033946;28;20275;-74
2023/04/17 06:35:57;;;;;;;5.97;5.47;;;9.40;99.90;;;;;;5043091;28;20208;-77
2023/04/17 06:38:22;;;;;;;6.97;6.28;;;9.20;99.90;;;;;;5045885;28;20179;-75
2023/04/17 06:40:48;;;;;;;6.25;5.75;;;9.10;99.90;;;;;;5044201;28;20616;-76
2023/04/17 06:43:17;;;;;;;6.10;5.50;;;9.20;99.90;;;;;;5043957;28;20179;-75
2023/04/17 06:45:42;;;;;;;5.97;5.45;;;9.10;99.90;;;;;;5048610;28;20226;-75
2023/04/17 06:48:08;;;;;;;7.82;6.40;;;9.00;99.90;;;;;;5044522;28;20180;-75
2023/04/17 06:50:34;;;;;;;6.40;5.90;;;9.00;99.90;;;;;;5050697;28;20238;-75
2023/04/17 06:52:59;;;;;;;5.82;5.32;;;9.00;99.90;;;;;;5051694;28;20609;-74
2023/04/17 06:55:26;;;;;;;6.85;6.20;;;9.00;99.90;;;;;;5034769;28;20195;-74
2023/04/17 06:57:51;;;;;;;5.97;5.40;;;9.00;99.90;;;;;;5041994;28;20281;-74
2023/04/17 07:00:17;;;;;;;5.82;5.38;;;9.00;99.90;;;;;;5049421;28;20632;-75
2023/04/17 07:02:43;;;;;;;5.68;5.25;;;9.00;99.90;;;;;;5034003;28;20175;-76
2023/04/17 07:05:09;;;;;;;7.38;6.13;;;9.20;99.90;;;;;;5047885;28;20207;-75
2023/04/17 07:07:35;;;;;;;5.47;4.97;;;9.40;99.90;;;;;;5044362;28;20214;-75
2023/04/17 07:10:02;;;;;;;5.32;4.88;;;9.60;99.90;;;;;;5047947;28;20188;-75
2023/04/17 07:12:27;;;;;;;6.10;5.60;;;9.90;99.90;;;;;;5054019;28;20186;-75
2023/04/17 07:14:53;;;;;;;5.95;5.45;;;9.90;99.90;;;;;;5051499;28;20208;-75
2023/04/17 07:17:19;;;;;;;6.18;5.63;;;10.10;99.90;;;;;;5048053;28;20207;-75
2023/04/17 07:19:44;;;;;;;6.00;5.50;;;10.20;99.90;;;;;;5049515;28;20461;-75
2023/04/17 07:22:10;;;;;;;6.47;5.72;;;10.40;99.90;;;;;;5049773;28;20184;-76
2023/04/17 07:24:36;;;;;;;6.25;5.75;;;10.40;99.90;;;;;;5051817;28;20683;-76
2023/04/17 07:27:02;;;;;;;6.05;5.65;;;10.90;99.90;;;;;;5047698;28;20260;-76
2023/04/17 07:29:28;;;;;;;5.57;5.07;;;11.50;99.90;;;;;;5047898;28;20171;-77
2023/04/17 07:31:54;;;;;;;5.85;5.30;;;11.80;99.90;;;;;;5040073;28;20183;-76
2023/04/17 07:34:20;;;;;;;5.95;5.45;;;12.00;99.90;;;;;;5049951;28;20257;-75
2023/04/17 07:36:48;;;;;;;6.50;5.90;;;11.90;99.90;;;;;;5047731;28;20207;-76
2023/04/17 07:39:14;;;;;;;5.85;5.35;;;11.80;99.90;;;;;;5046539;28;20190;-75
2023/04/17 07:41:39;;;;;;;4.97;4.57;;;11.70;99.90;;;;;;5052098;28;20176;-75
2023/04/17 07:44:05;;;;;;;5.80;5.30;;;11.70;99.90;;;;;;5048329;28;20219;-75
2023/04/17 07:46:34;;;;;;;5.53;5.13;;;11.70;99.90;;;;;;5054500;28;20187;-74
2023/04/17 07:49:09;;;;;;;6.28;5.65;;;11.60;99.90;;;;;;5046931;28;20414;-78
2023/04/17 07:51:34;;;;;;;6.43;5.25;;;11.70;99.90;;;;;;5053989;28;20218;-75
2023/04/17 07:54:00;;;;;;;5.88;5.38;;;11.80;99.90;;;;;;5050714;28;20261;-75
2023/04/17 07:56:27;;;;;;;5.57;5.07;;;11.90;99.90;;;;;;5056124;28;20218;-76
2023/04/17 07:58:55;;;;;;;6.00;5.50;;;11.90;99.90;;;;;;5051292;28;20229;-77
2023/04/17 08:01:26;;;;;;;6.22;5.72;;;11.90;99.90;;;;;;5046541;28;20188;-75
2023/04/17 08:03:53;;;;;;;5.72;5.32;;;12.40;99.90;;;;;;5035484;28;20362;-74
2023/04/17 08:06:19;;;;;;;6.00;5.60;;;12.80;99.90;;;;;;5053256;28;20565;-74
2023/04/17 08:08:46;;;;;;;5.95;5.35;;;13.30;99.90;;;;;;5055346;28;20262;-75
2023/04/17 08:11:15;;;;;;;5.47;5.00;;;13.60;99.90;;;;;;5052276;28;20262;-74
2023/04/17 08:13:40;;;;;;;5.43;4.95;;;13.80;99.90;;;;;;5055523;28;20307;-75
2023/04/17 08:16:07;;;;;;;5.75;5.28;;;13.60;99.90;;;;;;5034467;28;20275;-74
2023/04/17 08:18:36;;;;;;;6.57;6.07;;;13.70;99.90;;;;;;5038212;28;20282;-75
2023/04/17 08:21:02;;;;;;;6.30;5.80;;;13.50;99.90;;;;;;5048216;28;20631;-74
2023/04/17 08:23:28;;;;;;;6.10;5.60;;;13.70;99.90;;;;;;5050519;28;20183;-74
2023/04/17 08:25:54;;;;;;;4.70;4.30;;;13.80;99.90;;;;;;5052277;28;20283;-74
2023/04/17 08:28:20;;;;;;;4.88;4.47;;;14.60;99.90;;;;;;5048643;28;20179;-75
2023/04/17 08:30:45;;;;;;;4.60;4.30;;;15.30;99.90;;;;;;5053536;28;20184;-75
2023/04/17 08:33:12;;;;;;;5.60;5.10;;;15.60;99.90;;;;;;5052829;28;20548;-75
2023/04/17 08:35:38;;;;;;;4.85;4.45;;;15.30;99.90;;;;;;5046671;28;20195;-74
2023/04/17 08:38:04;;;;;;;4.70;4.40;;;15.80;99.90;;;;;;5055934;28;20815;-75
2023/04/17 08:40:30;;;;;;;4.88;4.57;;;15.60;99.90;;;;;;5052369;28;20189;-76
2023/04/17 08:42:58;;;;;;;4.03;3.83;;;15.50;99.90;;;;;;5051365;28;20168;-77
2023/04/17 08:45:24;;;;;;;4.85;4.50;;;16.20;99.90;;;;;;5049850;28;20313;-77
2023/04/17 08:47:49;;;;;;;4.20;4.00;;;16.70;99.90;;;;;;5047211;28;20191;-77
2023/04/17 08:50:17;;;;;;;5.30;4.80;;;16.00;99.90;;;;;;5034883;28;20271;-75
2023/04/17 08:52:45;;;;;;;4.78;4.47;;;16.20;99.90;;;;;;5056510;28;20207;-75
2023/04/17 08:55:16;;;;;;;4.40;4.03;;;16.30;99.90;;;;;;5045323;28;20738;-75
2023/04/17 08:58:02;;;;;;;3.95;3.75;;;16.60;99.90;;;;;;5049560;28;20577;-75
2023/04/17 09:00:33;;;;;;;4.00;3.60;;;16.90;99.90;;;;;;5049340;28;20171;-75
2023/04/17 09:03:01;;;;;;;3.72;3.53;;;17.00;99.90;;;;;;5048736;28;20262;-75
2023/04/17 09:05:37;;;;;;;3.88;3.60;;;17.00;99.90;;;;;;5052116;28;20187;-75
2023/04/17 09:08:19;;;;;;;4.10;3.80;;;17.40;99.90;;;;;;5051646;28;20190;-75
2023/04/17 09:10:50;;;;;;;3.97;3.78;;;18.50;99.90;;;;;;5047714;28;20187;-75
2023/04/17 09:13:17;;;;;;;3.90;3.50;;;18.50;99.50;;;;;;5048861;28;20585;-76
2023/04/17 09:15:45;;;;;;;3.50;3.30;;;19.50;96.90;;;;;;5044505;28;20318;-75
2023/04/17 09:18:29;;;;;;;4.72;3.63;;;19.90;94.10;;;;;;5047982;28;20208;-75
2023/04/17 09:20:57;;;;;;;3.67;3.38;;;19.60;93.50;;;;;;5049488;28;20191;-75
2023/04/17 09:23:24;;;;;;;3.83;3.63;;;19.20;92.70;;;;;;5053751;28;20180;-75
2023/04/17 09:26:13;;;;;;;2.95;2.85;;;18.50;96.10;;;;;;5044503;28;20208;-75
2023/04/17 09:28:40;;;;;;;3.60;3.40;;;20.90;93.90;;;;;;5047712;28;20187;-79
2023/04/17 09:31:25;;;;;;;2.63;2.53;;;24.60;80.60;;;;;;5049317;28;20258;-78
2023/04/17 09:34:06;;;;;;;3.05;2.90;;;28.60;66.50;;;;;;5039443;28;20229;-75
2023/04/17 09:36:33;;;;;;;3.03;2.83;;;30.20;56.30;;;;;;5045264;28;20222;-77
2023/04/17 09:39:03;;;;;;;2.88;2.78;;;30.00;53.20;;;;;;5049313;28;20171;-75
2023/04/17 09:41:30;;;;;;;2.78;2.67;;;30.90;50.70;;;;;;5048894;28;20655;-76
2023/04/17 09:44:04;;;;;;;2.60;2.50;;;32.00;52.00;;;;;;5046460;28;20188;-77
2023/04/17 09:46:46;;;;;;;2.65;2.55;;;32.90;49.40;;;;;;5048943;28;20178;-77
2023/04/17 09:49:25;;;;;;;2.50;2.40;;;35.00;45.30;;;;;;5048667;28;20168;-77
2023/04/17 09:51:51;;;;;;;2.55;2.45;;;33.10;45.20;;;;;;5045253;28;20179;-74
2023/04/17 09:54:19;;;;;;;2.45;2.35;;;32.90;45.80;;;;;;5050829;28;20207;-74
2023/04/17 09:56:48;;;;;;;2.10;2.00;;;32.50;45.00;;;;;;5048676;28;20206;-75
2023/04/17 09:59:15;;;;;;;2.13;2.03;;;34.10;44.10;;;;;;5047736;28;20556;-75
2023/04/17 10:01:42;;;;;;;2.75;2.00;;;32.90;42.90;;;;;;5046600;28;20236;-75
2023/04/17 10:04:07;;;;;;;2.50;2.40;;;31.80;46.50;;;;;;5051870;28;20253;-75
2023/04/17 10:06:34;;;;;;;2.20;2.10;;;34.50;44.60;;;;;;5046679;28;20179;-75
2023/04/17 10:09:00;;;;;;;2.55;2.42;;;33.20;43.90;;;;;;5051874;28;20175;-75
2023/04/17 10:11:45;;;;;;;2.10;2.00;;;34.30;44.20;;;;;;5046881;28;20175;-75
2023/04/17 10:14:23;;;;;;;1.80;1.80;;;31.60;46.90;;;;;;5050353;28;20215;-74
2023/04/17 10:16:49;;;;;;;2.38;2.28;;;29.00;48.80;;;;;;5053290;28;20214;-75
2023/04/17 10:19:31;;;;;;;1.88;1.77;;;25.30;55.40;;;;;;5051062;28;20188;-79
2023/04/17 10:22:14;;;;;;;2.13;2.03;;;23.60;58.10;;;;;;5045310;28;20245;-78
2023/04/17 10:24:44;;;;;;;2.00;1.90;;;22.50;61.20;;;;;;5034642;28;20196;-77
2023/04/17 10:27:41;;;;;;;2.63;2.53;;;22.10;63.20;;;;;;5038676;28;20184;-77
2023/04/17 10:30:09;;;;;;;2.20;2.10;;;21.10;65.50;;;;;;5038561;28;20196;-78
2023/04/17 10:32:35;;;;;;;2.65;2.47;;;19.40;69.30;;;;;;5048556;28;20180;-79
2023/04/17 10:35:16;;;;;;;2.70;2.50;;;17.70;76.20;;;;;;5043865;28;20613;-78
2023/04/17 10:37:51;;;;;;;2.78;2.67;;;16.70;82.70;;;;;;5056857;28;20206;-78
2023/04/17 10:40:20;;;;;;;2.25;2.08;;;16.40;82.90;;;;;;5051819;28;20547;-77
2023/04/17 10:43:00;;;;;;;3.03;2.28;;;16.60;86.40;;;;;;5049273;28;20199;-77
2023/04/17 10:45:52;;;;;;;3.13;2.80;;;17.00;84.40;;;;;;5042953;28;20196;-76
2023/04/17 10:48:34;;;;;;;2.90;2.80;;;15.90;89.60;;;;;;5029402;28;20187;-77
2023/04/17 10:51:27;;;;;;;2.80;2.60;;;16.30;92.10;;;;;;5048346;28;20226;-77
2023/04/17 10:53:57;;;;;;;2.10;2.00;;;19.40;87.80;;;;;;5049364;28;20213;-77
2023/04/17 10:56:23;;;;;;;2.70;2.50;;;24.70;72.20;;;;;;5047368;28;20220;-77
2023/04/17 10:58:59;;;;;;;2.15;2.05;;;24.40;65.10;;;;;;5045761;28;20184;-77
2023/04/17 11:01:51;;;;;;;1.88;1.83;;;23.00;68.80;;;;;;5034072;28;20670;-77
2023/04/17 11:04:28;;;;;;;2.38;2.20;;;22.50;70.20;;;;;;5033324;28;20212;-77
2023/04/17 11:06:54;;;;;;;1.60;1.60;;;22.60;69.90;;;;;;5058044;28;20186;-78
2023/04/17 11:09:21;;;;;;;2.20;2.10;;;21.60;72.50;;;;;;5049649;28;20180;-77
2023/04/17 11:11:47;;;;;;;1.90;1.90;;;21.70;73.30;;;;;;5051591;28;20190;-79
2023/04/17 11:14:15;;;;;;;2.00;1.90;;;20.50;75.10;;;;;;5059418;28;20203;-80
2023/04/17 11:16:43;;;;;;;2.05;1.95;;;20.10;78.00;;;;;;5046337;28;20227;-77
2023/04/17 11:19:16;;;;;;;2.10;2.00;;;19.40;78.50;;;;;;5046582;28;20542;-78
2023/04/17 11:21:42;;;;;;;1.42;1.42;;;19.00;80.20;;;;;;5053974;28;20200;-77
2023/04/17 11:24:09;;;;;;;1.98;1.95;;;19.00;78.40;;;;;;5044126;28;20679;-77
2023/04/17 11:26:45;;;;;;;2.35;2.25;;;19.70;79.20;;;;;;5055341;28;20187;-78
2023/04/17 11:29:15;;;;;;;2.13;2.03;;;19.10;79.30;;;;;;5049744;28;20179;-78
2023/04/17 11:31:41;;;;;;;2.17;2.05;;;18.10;83.80;;;;;;5043259;28;20730;-77
2023/04/17 11:34:08;;;;;;;2.63;2.05;;;17.90;87.60;;;;;;5055145;28;20338;-77
2023/04/17 11:36:34;;;;;;;1.50;1.50;;;18.80;82.80;;;;;;5052469;28;20278;-77
2023/04/17 11:39:00;;;;;;;1.35;1.33;;;19.10;79.10;;;;;;5047196;28;20180;-76
2023/04/17 11:41:36;;;;;;;2.58;1.33;;;22.70;73.30;;;;;;5051823;28;20179;-76
2023/04/17 11:44:02;;;;;;;1.27;1.25;;;25.00;65.60;;;;;;5043667;28;20180;-76
2023/04/17 11:46:29;;;;;;;0.95;0.95;;;25.10;62.40;;;;;;5048893;28;20186;-77
2023/04/17 11:48:54;;;;;;;1.00;1.00;;;26.80;59.00;;;;;;5054819;28;20184;-76
2023/04/17 11:51:20;;;;;;;1.65;1.27;;;25.70;61.80;;;;;;5051857;28;20560;-74
2023/04/17 11:53:51;;;;;;;1.35;1.35;;;25.90;60.10;;;;;;5042244;28;20190;-74
2023/04/17 11:56:18;;;;;;;1.20;1.20;;;24.80;65.20;;;;;;5044239;28;20718;-76
2023/04/17 11:58:45;;;;;;;1.23;1.13;;;21.80;73.30;;;;;;5052750;28;20551;-76
2023/04/17 12:01:12;;;;;;;1.25;1.20;;;22.80;75.80;;;;;;5034560;28;20180;-74
2023/04/17 12:03:37;;;;;;;1.00;1.00;;;25.10;69.90;;;;;;5051651;28;20716;-75
2023/04/17 12:06:05;;;;;;;1.30;1.20;;;24.00;70.50;;;;;;5048251;28;20214;-74
2023/04/17 12:08:50;;;;;;;1.00;1.00;;;23.50;70.70;;;;;;5032103;28;20742;-74
2023/04/17 12:11:24;;;;;;;1.20;1.20;;;23.30;71.40;;;;;;5046718;28;20167;-77
2023/04/17 12:13:54;;;;;;;2.47;1.38;;;21.60;75.20;;;;;;5052480;28;20184;-76
2023/04/17 12:16:20;;;;;;;1.05;1.05;;;20.90;74.20;;;;;;5049559;28;20222;-77
2023/04/17 12:18:46;;;;;;;1.55;1.02;;;19.00;79.30;;;;;;5054596;28;20187;-78
2023/04/17 12:21:13;;;;;;;1.10;1.10;;;18.10;82.60;;;;;;5046007;28;20191;-77
2023/04/17 12:23:39;;;;;;;0.90;0.90;;;18.00;85.30;;;;;;5044288;28;20176;-76
2023/04/17 12:26:05;;;;;;;4.22;0.88;;;18.80;80.90;;;;;;5055113;28;20199;-77
2023/04/17 12:28:30;;;;;;;0.82;0.82;;;18.80;79.00;;;;;;5049164;28;20188;-77
2023/04/17 12:30:56;;;;;;;1.02;0.98;;;18.20;82.20;;;;;;5047579;28;20179;-78
2023/04/17 12:33:22;;;;;;;0.80;0.80;;;17.50;86.30;;;;;;5047782;28;20187;-78
2023/04/17 12:35:48;;;;;;;1.25;1.17;;;18.00;86.70;;;;;;5052464;28;20208;-77
2023/04/17 12:38:13;;;;;;;0.90;0.90;;;18.20;83.60;;;;;;5052531;28;20671;-76
2023/04/17 12:40:42;;;;;;;0.82;0.82;;;18.20;90.30;;;;;;5048845;28;20222;-78
2023/04/17 12:43:08;;;;;;;1.23;0.98;;;18.30;89.50;;;;;;5032258;28;20183;-77
2023/04/17 12:45:35;;;;;;;0.85;0.85;;;17.60;90.00;;;;;;5051455;28;20203;-77
2023/04/17 12:48:02;;;;;;;1.40;1.35;;;17.30;92.70;;;;;;5049081;28;20176;-77
2023/04/17 12:50:27;;;;;;;1.02;0.80;;;17.60;93.50;;;;;;5043408;28;20183;-77
2023/04/17 12:52:53;;;;;;;1.00;1.00;;;16.50;93.70;;;;;;5041156;28;20180;-76
2023/04/17 12:55:19;;;;;;;1.00;1.00;;;16.30;95.90;;;;;;5049696;28;20258;-76